sensor_id;sensor_type;location;lat;lon;timestamp;pressure;altitude;pressure_sealevel;temperature
64904;BMP280;51401;48.882;12.598;2023-09-30T00:02:04;64116.25;;;-137.53
64904;BMP280;51401;48.882;12.598;2023-09-30T00:04:30;64116.25;;;-137.53
64904;BMP280;51401;48.882;12.598;2023-09-30T00:06:55;64116.25;;;-137.53
64904;BMP280;51401;48.882;12.598;2023-09-30T00:09:21;64120.25;;;-137.53
64904;BMP280;51401;48.882;12.598;2023-09-30T00:11:47;64120.25;;;-137.53
64904;BMP280;51401;48.882;12.598;2023-09-30T00:14:12;64118.25;;;-137.53
64904;BMP280;51401;48.882;12.598;2023-09-30T00:16:37;64120.25;;;-137.53
64904;BMP280;51401;48.882;12.598;2023-09-30T00:19:03;64116.25;;;-137.53
64904;BMP280;51401;48.882;12.598;2023-09-30T00:21:28;64118.25;;;-137.53
64904;BMP280;51401;48.882;12.598;2023-09-30T00:23:54;64116.25;;;-137.53
64904;BMP280;51401;48.882;12.598;2023-09-30T00:26:19;64118.25;;;-137.53
64904;BMP280;51401;48.882;12.598;2023-09-30T00:28:46;64120.25;;;-137.53
64904;BMP280;51401;48.882;12.598;2023-09-30T00:31:11;64120.25;;;-137.53
64904;BMP280;51401;48.882;12.598;2023-09-30T00:33:37;64118.25;;;-137.53
64904;BMP280;51401;48.882;12.598;2023-09-30T00:36:09;64120.25;;;-137.53
64904;BMP280;51401;48.882;12.598;2023-09-30T00:38:36;64116.25;;;-137.53
64904;BMP280;51401;48.882;12.598;2023-09-30T00:41:01;64122.22;;;-137.53
64904;BMP280;51401;48.882;12.598;2023-09-30T00:43:26;64120.25;;;-137.53
64904;BMP280;51401;48.882;12.598;2023-09-30T00:46:01;64120.25;;;-137.53
64904;BMP280;51401;48.882;12.598;2023-09-30T00:48:28;64120.25;;;-137.53
64904;BMP280;51401;48.882;12.598;2023-09-30T00:50:54;64120.25;;;-137.53
64904;BMP280;51401;48.882;12.598;2023-09-30T00:53:21;64120.25;;;-137.53
64904;BMP280;51401;48.882;12.598;2023-09-30T00:55:46;64118.25;;;-137.53
64904;BMP280;51401;48.882;12.598;2023-09-30T00:58:11;64122.22;;;-137.53
64904;BMP280;51401;48.882;12.598;2023-09-30T01:00:37;64120.25;;;-137.53
64904;BMP280;51401;48.882;12.598;2023-09-30T01:03:04;64120.25;;;-137.53
64904;BMP280;51401;48.882;12.598;2023-09-30T01:05:30;64122.22;;;-137.53
64904;BMP280;51401;48.882;12.598;2023-09-30T01:07:56;64118.25;;;-137.53
64904;BMP280;51401;48.882;12.598;2023-09-30T01:10:21;64116.25;;;-137.53
64904;BMP280;51401;48.882;12.598;2023-09-30T01:12:46;64120.25;;;-137.53
64904;BMP280;51401;48.882;12.598;2023-09-30T01:15:12;64122.22;;;-137.53
64904;BMP280;51401;48.882;12.598;2023-09-30T01:17:37;64116.25;;;-137.53
64904;BMP280;51401;48.882;12.598;2023-09-30T01:20:03;64120.25;;;-137.53
64904;BMP280;51401;48.882;12.598;2023-09-30T01:22:33;64120.25;;;-137.53
64904;BMP280;51401;48.882;12.598;2023-09-30T01:24:58;64118.25;;;-137.53
64904;BMP280;51401;48.882;12.598;2023-09-30T01:27:23;64122.22;;;-137.53
64904;BMP280;51401;48.882;12.598;2023-09-30T01:29:50;64124.22;;;-137.53
64904;BMP280;51401;48.882;12.598;2023-09-30T01:32:16;64122.22;;;-137.53
64904;BMP280;51401;48.882;12.598;2023-09-30T01:34:41;64122.22;;;-137.53
64904;BMP280;51401;48.882;12.598;2023-09-30T01:37:07;64120.25;;;-137.53
64904;BMP280;51401;48.882;12.598;2023-09-30T01:39:32;64120.25;;;-137.53
64904;BMP280;51401;48.882;12.598;2023-09-30T01:41:58;64124.22;;;-137.53
64904;BMP280;51401;48.882;12.598;2023-09-30T01:44:24;64120.25;;;-137.53
64904;BMP280;51401;48.882;12.598;2023-09-30T01:46:51;64122.22;;;-137.53
64904;BMP280;51401;48.882;12.598;2023-09-30T01:49:16;64124.22;;;-137.53
64904;BMP280;51401;48.882;12.598;2023-09-30T01:51:43;64120.25;;;-137.53
64904;BMP280;51401;48.882;12.598;2023-09-30T01:54:09;64122.22;;;-137.53
64904;BMP280;51401;48.882;12.598;2023-09-30T01:56:36;64122.22;;;-137.53
64904;BMP280;51401;48.882;12.598;2023-09-30T01:59:01;64122.22;;;-137.53
64904;BMP280;51401;48.882;12.598;2023-09-30T02:01:26;64120.25;;;-137.53
64904;BMP280;51401;48.882;12.598;2023-09-30T02:03:52;64124.22;;;-137.53
64904;BMP280;51401;48.882;12.598;2023-09-30T02:06:17;64122.22;;;-137.53
64904;BMP280;51401;48.882;12.598;2023-09-30T02:08:42;64120.25;;;-137.53
64904;BMP280;51401;48.882;12.598;2023-09-30T02:11:09;64120.25;;;-137.53
64904;BMP280;51401;48.882;12.598;2023-09-30T02:13:34;64124.22;;;-137.53
64904;BMP280;51401;48.882;12.598;2023-09-30T02:16:00;64124.22;;;-137.53
64904;BMP280;51401;48.882;12.598;2023-09-30T02:18:25;64124.22;;;-137.53
64904;BMP280;51401;48.882;12.598;2023-09-30T02:20:51;64120.25;;;-137.53
64904;BMP280;51401;48.882;12.598;2023-09-30T02:23:18;64122.22;;;-137.53
64904;BMP280;51401;48.882;12.598;2023-09-30T02:25:44;64122.22;;;-137.53
64904;BMP280;51401;48.882;12.598;2023-09-30T02:28:09;64124.22;;;-137.53
64904;BMP280;51401;48.882;12.598;2023-09-30T02:30:35;64122.22;;;-137.53
64904;BMP280;51401;48.882;12.598;2023-09-30T02:33:01;64122.22;;;-137.53
64904;BMP280;51401;48.882;12.598;2023-09-30T02:35:27;64126.19;;;-137.53
64904;BMP280;51401;48.882;12.598;2023-09-30T02:37:53;64122.22;;;-137.53
64904;BMP280;51401;48.882;12.598;2023-09-30T02:40:19;64124.22;;;-137.53
64904;BMP280;51401;48.882;12.598;2023-09-30T02:42:45;64124.22;;;-137.53
64904;BMP280;51401;48.882;12.598;2023-09-30T02:45:11;64124.22;;;-137.53
64904;BMP280;51401;48.882;12.598;2023-09-30T02:47:37;64120.25;;;-137.53
64904;BMP280;51401;48.882;12.598;2023-09-30T02:50:06;64122.22;;;-137.53
64904;BMP280;51401;48.882;12.598;2023-09-30T02:52:34;64126.19;;;-137.53
64904;BMP280;51401;48.882;12.598;2023-09-30T02:54:59;64122.22;;;-137.53
64904;BMP280;51401;48.882;12.598;2023-09-30T02:57:25;64122.22;;;-137.53
64904;BMP280;51401;48.882;12.598;2023-09-30T02:59:52;64120.25;;;-137.53
64904;BMP280;51401;48.882;12.598;2023-09-30T03:02:19;64122.22;;;-137.53
64904;BMP280;51401;48.882;12.598;2023-09-30T03:04:44;64122.22;;;-137.53
64904;BMP280;51401;48.882;12.598;2023-09-30T03:07:10;64122.22;;;-137.53
64904;BMP280;51401;48.882;12.598;2023-09-30T03:09:35;64122.22;;;-137.53
64904;BMP280;51401;48.882;12.598;2023-09-30T03:12:03;64124.22;;;-137.53
64904;BMP280;51401;48.882;12.598;2023-09-30T03:14:29;64124.22;;;-137.53
64904;BMP280;51401;48.882;12.598;2023-09-30T03:16:58;64120.25;;;-137.53
64904;BMP280;51401;48.882;12.598;2023-09-30T03:19:24;64124.22;;;-137.53
64904;BMP280;51401;48.882;12.598;2023-09-30T03:21:49;64124.22;;;-137.53
64904;BMP280;51401;48.882;12.598;2023-09-30T03:24:15;64124.22;;;-137.53
64904;BMP280;51401;48.882;12.598;2023-09-30T03:26:40;64124.22;;;-137.53
64904;BMP280;51401;48.882;12.598;2023-09-30T03:29:07;64124.22;;;-137.53
64904;BMP280;51401;48.882;12.598;2023-09-30T03:31:34;64124.22;;;-137.53
64904;BMP280;51401;48.882;12.598;2023-09-30T03:34:00;64124.22;;;-137.53
64904;BMP280;51401;48.882;12.598;2023-09-30T03:36:25;64126.19;;;-137.53
64904;BMP280;51401;48.882;12.598;2023-09-30T03:38:51;64124.22;;;-137.53
64904;BMP280;51401;48.882;12.598;2023-09-30T03:41:19;64124.22;;;-137.53
64904;BMP280;51401;48.882;12.598;2023-09-30T03:43:44;64124.22;;;-137.53
64904;BMP280;51401;48.882;12.598;2023-09-30T03:46:10;64128.19;;;-137.53
64904;BMP280;51401;48.882;12.598;2023-09-30T03:48:37;64124.22;;;-137.53
64904;BMP280;51401;48.882;12.598;2023-09-30T03:51:11;64126.19;;;-137.53
64904;BMP280;51401;48.882;12.598;2023-09-30T03:53:43;64124.22;;;-137.53
64904;BMP280;51401;48.882;12.598;2023-09-30T03:56:09;64122.22;;;-137.53
64904;BMP280;51401;48.882;12.598;2023-09-30T03:58:37;64124.22;;;-137.53
64904;BMP280;51401;48.882;12.598;2023-09-30T04:01:03;64124.22;;;-137.53
64904;BMP280;51401;48.882;12.598;2023-09-30T04:03:29;64122.22;;;-137.53
64904;BMP280;51401;48.882;12.598;2023-09-30T04:05:54;64126.19;;;-137.53
64904;BMP280;51401;48.882;12.598;2023-09-30T04:08:20;64120.25;;;-137.53
64904;BMP280;51401;48.882;12.598;2023-09-30T04:10:47;64124.22;;;-137.53
64904;BMP280;51401;48.882;12.598;2023-09-30T04:13:12;64124.22;;;-137.53
64904;BMP280;51401;48.882;12.598;2023-09-30T04:15:38;64120.25;;;-137.53
64904;BMP280;51401;48.882;12.598;2023-09-30T04:18:04;64124.22;;;-137.53
64904;BMP280;51401;48.882;12.598;2023-09-30T04:20:32;64120.25;;;-137.53
64904;BMP280;51401;48.882;12.598;2023-09-30T04:22:57;64124.22;;;-137.53
64904;BMP280;51401;48.882;12.598;2023-09-30T04:25:24;64124.22;;;-137.53
64904;BMP280;51401;48.882;12.598;2023-09-30T04:27:53;64120.25;;;-137.53
64904;BMP280;51401;48.882;12.598;2023-09-30T04:30:18;64122.22;;;-137.53
64904;BMP280;51401;48.882;12.598;2023-09-30T04:32:44;64122.22;;;-137.53
64904;BMP280;51401;48.882;12.598;2023-09-30T04:35:10;64120.25;;;-137.53
64904;BMP280;51401;48.882;12.598;2023-09-30T04:37:36;64124.22;;;-137.53
64904;BMP280;51401;48.882;12.598;2023-09-30T04:40:05;64124.22;;;-137.53
64904;BMP280;51401;48.882;12.598;2023-09-30T04:42:43;64120.25;;;-137.53
64904;BMP280;51401;48.882;12.598;2023-09-30T04:45:12;64122.22;;;-137.53
64904;BMP280;51401;48.882;12.598;2023-09-30T04:47:38;64124.22;;;-137.53
64904;BMP280;51401;48.882;12.598;2023-09-30T04:50:07;64120.25;;;-137.53
64904;BMP280;51401;48.882;12.598;2023-09-30T04:52:34;64120.25;;;-137.53
64904;BMP280;51401;48.882;12.598;2023-09-30T04:55:00;64120.25;;;-137.53
64904;BMP280;51401;48.882;12.598;2023-09-30T04:57:26;64120.25;;;-137.53
64904;BMP280;51401;48.882;12.598;2023-09-30T04:59:51;64120.25;;;-137.53
64904;BMP280;51401;48.882;12.598;2023-09-30T05:02:17;64118.25;;;-137.53
64904;BMP280;51401;48.882;12.598;2023-09-30T05:04:42;64122.22;;;-137.53
64904;BMP280;51401;48.882;12.598;2023-09-30T05:07:07;64120.25;;;-137.53
64904;BMP280;51401;48.882;12.598;2023-09-30T05:09:33;64124.22;;;-137.53
64904;BMP280;51401;48.882;12.598;2023-09-30T05:11:59;64122.22;;;-137.53
64904;BMP280;51401;48.882;12.598;2023-09-30T05:14:24;64120.25;;;-137.53
64904;BMP280;51401;48.882;12.598;2023-09-30T05:16:49;64122.22;;;-137.53
64904;BMP280;51401;48.882;12.598;2023-09-30T05:19:15;64120.25;;;-137.53
64904;BMP280;51401;48.882;12.598;2023-09-30T05:21:40;64122.22;;;-137.53
64904;BMP280;51401;48.882;12.598;2023-09-30T05:24:06;64120.25;;;-137.53
64904;BMP280;51401;48.882;12.598;2023-09-30T05:26:32;64120.25;;;-137.53
64904;BMP280;51401;48.882;12.598;2023-09-30T05:28:58;64120.25;;;-137.53
64904;BMP280;51401;48.882;12.598;2023-09-30T05:31:24;64120.25;;;-137.53
64904;BMP280;51401;48.882;12.598;2023-09-30T05:33:50;64122.22;;;-137.53
64904;BMP280;51401;48.882;12.598;2023-09-30T05:36:15;64120.25;;;-137.53
64904;BMP280;51401;48.882;12.598;2023-09-30T05:38:40;64120.25;;;-137.53
64904;BMP280;51401;48.882;12.598;2023-09-30T05:41:06;64120.25;;;-137.53
64904;BMP280;51401;48.882;12.598;2023-09-30T05:43:32;64120.25;;;-137.53
64904;BMP280;51401;48.882;12.598;2023-09-30T05:45:57;64120.25;;;-137.53
64904;BMP280;51401;48.882;12.598;2023-09-30T05:48:23;64120.25;;;-137.53
64904;BMP280;51401;48.882;12.598;2023-09-30T05:50:49;64118.25;;;-137.53
64904;BMP280;51401;48.882;12.598;2023-09-30T05:53:14;64120.25;;;-137.53
64904;BMP280;51401;48.882;12.598;2023-09-30T05:55:40;64122.22;;;-137.53
64904;BMP280;51401;48.882;12.598;2023-09-30T05:58:13;64124.22;;;-137.53
64904;BMP280;51401;48.882;12.598;2023-09-30T06:00:39;64120.25;;;-137.53
64904;BMP280;51401;48.882;12.598;2023-09-30T06:03:05;64124.22;;;-137.53
64904;BMP280;51401;48.882;12.598;2023-09-30T06:05:32;64120.25;;;-137.53
64904;BMP280;51401;48.882;12.598;2023-09-30T06:08:00;64118.25;;;-137.53
64904;BMP280;51401;48.882;12.598;2023-09-30T06:10:28;64116.25;;;-137.53
64904;BMP280;51401;48.882;12.598;2023-09-30T06:12:53;64122.22;;;-137.53
64904;BMP280;51401;48.882;12.598;2023-09-30T06:15:20;64122.22;;;-137.53
64904;BMP280;51401;48.882;12.598;2023-09-30T06:17:49;64122.22;;;-137.53
64904;BMP280;51401;48.882;12.598;2023-09-30T06:20:17;64122.22;;;-137.53
64904;BMP280;51401;48.882;12.598;2023-09-30T06:22:43;64120.25;;;-137.53
64904;BMP280;51401;48.882;12.598;2023-09-30T06:25:11;64120.25;;;-137.53
64904;BMP280;51401;48.882;12.598;2023-09-30T06:27:36;64120.25;;;-137.53
64904;BMP280;51401;48.882;12.598;2023-09-30T06:30:03;64120.25;;;-137.53
64904;BMP280;51401;48.882;12.598;2023-09-30T06:32:30;64120.25;;;-137.53
64904;BMP280;51401;48.882;12.598;2023-09-30T06:34:55;64120.25;;;-137.53
64904;BMP280;51401;48.882;12.598;2023-09-30T06:37:20;64116.25;;;-137.53
64904;BMP280;51401;48.882;12.598;2023-09-30T06:39:47;64116.25;;;-137.53
64904;BMP280;51401;48.882;12.598;2023-09-30T06:42:13;64116.25;;;-137.53
64904;BMP280;51401;48.882;12.598;2023-09-30T06:44:38;64116.25;;;-137.53
64904;BMP280;51401;48.882;12.598;2023-09-30T06:47:03;64120.25;;;-137.53
64904;BMP280;51401;48.882;12.598;2023-09-30T06:49:29;64118.25;;;-137.53
64904;BMP280;51401;48.882;12.598;2023-09-30T06:51:55;64120.25;;;-137.53
64904;BMP280;51401;48.882;12.598;2023-09-30T06:54:21;64122.22;;;-137.53
64904;BMP280;51401;48.882;12.598;2023-09-30T06:56:46;64118.25;;;-137.53
64904;BMP280;51401;48.882;12.598;2023-09-30T06:59:11;64120.25;;;-137.53
64904;BMP280;51401;48.882;12.598;2023-09-30T07:01:37;64120.25;;;-137.53
64904;BMP280;51401;48.882;12.598;2023-09-30T07:04:02;64120.25;;;-137.53
64904;BMP280;51401;48.882;12.598;2023-09-30T07:06:28;64118.25;;;-137.53
64904;BMP280;51401;48.882;12.598;2023-09-30T07:08:54;64118.25;;;-137.53
64904;BMP280;51401;48.882;12.598;2023-09-30T07:11:29;64116.25;;;-137.53
64904;BMP280;51401;48.882;12.598;2023-09-30T07:13:55;64120.25;;;-137.53
64904;BMP280;51401;48.882;12.598;2023-09-30T07:16:21;64118.25;;;-137.53
64904;BMP280;51401;48.882;12.598;2023-09-30T07:18:46;64118.25;;;-137.53
64904;BMP280;51401;48.882;12.598;2023-09-30T07:21:12;64116.25;;;-137.53
64904;BMP280;51401;48.882;12.598;2023-09-30T07:23:38;64118.25;;;-137.53
64904;BMP280;51401;48.882;12.598;2023-09-30T07:26:03;64120.25;;;-137.53
64904;BMP280;51401;48.882;12.598;2023-09-30T07:28:28;64120.25;;;-137.53
64904;BMP280;51401;48.882;12.598;2023-09-30T07:30:55;64118.25;;;-137.53
64904;BMP280;51401;48.882;12.598;2023-09-30T07:33:20;64116.25;;;-137.53
64904;BMP280;51401;48.882;12.598;2023-09-30T07:35:46;64114.28;;;-137.53
64904;BMP280;51401;48.882;12.598;2023-09-30T07:38:11;64120.25;;;-137.53
64904;BMP280;51401;48.882;12.598;2023-09-30T07:40:36;64116.25;;;-137.53
64904;BMP280;51401;48.882;12.598;2023-09-30T07:43:02;64112.28;;;-137.53
64904;BMP280;51401;48.882;12.598;2023-09-30T07:45:27;64116.25;;;-137.53
64904;BMP280;51401;48.882;12.598;2023-09-30T07:47:53;64116.25;;;-137.53
64904;BMP280;51401;48.882;12.598;2023-09-30T07:50:18;64116.25;;;-137.53
64904;BMP280;51401;48.882;12.598;2023-09-30T07:52:44;64112.28;;;-137.53
64904;BMP280;51401;48.882;12.598;2023-09-30T07:55:11;64120.25;;;-137.53
64904;BMP280;51401;48.882;12.598;2023-09-30T07:57:37;64116.25;;;-137.53
64904;BMP280;51401;48.882;12.598;2023-09-30T08:00:04;64114.28;;;-137.53
64904;BMP280;51401;48.882;12.598;2023-09-30T08:02:40;64116.25;;;-137.53
64904;BMP280;51401;48.882;12.598;2023-09-30T08:05:06;64116.25;;;-137.53
64904;BMP280;51401;48.882;12.598;2023-09-30T08:07:32;64116.25;;;-137.53
64904;BMP280;51401;48.882;12.598;2023-09-30T08:09:58;64114.28;;;-137.53
64904;BMP280;51401;48.882;12.598;2023-09-30T08:12:23;64116.25;;;-137.53
64904;BMP280;51401;48.882;12.598;2023-09-30T08:14:49;64112.28;;;-137.53
64904;BMP280;51401;48.882;12.598;2023-09-30T08:17:16;64112.28;;;-137.53
64904;BMP280;51401;48.882;12.598;2023-09-30T08:19:42;64112.28;;;-137.53
64904;BMP280;51401;48.882;12.598;2023-09-30T08:22:08;64112.28;;;-137.53
64904;BMP280;51401;48.882;12.598;2023-09-30T08:24:34;64112.28;;;-137.53
64904;BMP280;51401;48.882;12.598;2023-09-30T08:27:00;64110.31;;;-137.53
64904;BMP280;51401;48.882;12.598;2023-09-30T08:29:26;64114.28;;;-137.53
64904;BMP280;51401;48.882;12.598;2023-09-30T08:31:51;64112.28;;;-137.53
64904;BMP280;51401;48.882;12.598;2023-09-30T08:34:16;64116.25;;;-137.53
64904;BMP280;51401;48.882;12.598;2023-09-30T08:36:43;64112.28;;;-137.53
64904;BMP280;51401;48.882;12.598;2023-09-30T08:39:08;64114.28;;;-137.53
64904;BMP280;51401;48.882;12.598;2023-09-30T08:41:35;64112.28;;;-137.53
64904;BMP280;51401;48.882;12.598;2023-09-30T08:44:02;64116.25;;;-137.53
64904;BMP280;51401;48.882;12.598;2023-09-30T08:46:31;64114.28;;;-137.53
64904;BMP280;51401;48.882;12.598;2023-09-30T08:48:58;64114.28;;;-137.53
64904;BMP280;51401;48.882;12.598;2023-09-30T08:51:24;64118.25;;;-137.53
64904;BMP280;51401;48.882;12.598;2023-09-30T08:53:50;64116.25;;;-137.53
64904;BMP280;51401;48.882;12.598;2023-09-30T08:56:19;64116.25;;;-137.53
64904;BMP280;51401;48.882;12.598;2023-09-30T08:58:45;64114.28;;;-137.53
64904;BMP280;51401;48.882;12.598;2023-09-30T09:01:11;64114.28;;;-137.53
64904;BMP280;51401;48.882;12.598;2023-09-30T09:03:36;64114.28;;;-137.53
64904;BMP280;51401;48.882;12.598;2023-09-30T09:06:01;64112.28;;;-137.53
64904;BMP280;51401;48.882;12.598;2023-09-30T09:08:27;64116.25;;;-137.53
64904;BMP280;51401;48.882;12.598;2023-09-30T09:10:57;64112.28;;;-137.53
64904;BMP280;51401;48.882;12.598;2023-09-30T09:13:24;64112.28;;;-137.53
64904;BMP280;51401;48.882;12.598;2023-09-30T09:16:04;64112.28;;;-137.53
64904;BMP280;51401;48.882;12.598;2023-09-30T09:18:34;64116.25;;;-137.53
64904;BMP280;51401;48.882;12.598;2023-09-30T09:21:22;64114.28;;;-137.53
64904;BMP280;51401;48.882;12.598;2023-09-30T09:23:49;64112.28;;;-137.53
64904;BMP280;51401;48.882;12.598;2023-09-30T09:26:26;64112.28;;;-137.53
64904;BMP280;51401;48.882;12.598;2023-09-30T09:29:00;64112.28;;;-137.53
64904;BMP280;51401;48.882;12.598;2023-09-30T09:31:34;64112.28;;;-137.53
64904;BMP280;51401;48.882;12.598;2023-09-30T09:34:03;64112.28;;;-137.53
64904;BMP280;51401;48.882;12.598;2023-09-30T09:36:45;64112.28;;;-137.53
64904;BMP280;51401;48.882;12.598;2023-09-30T09:39:11;64112.28;;;-137.53
64904;BMP280;51401;48.882;12.598;2023-09-30T09:41:52;64112.28;;;-137.53
64904;BMP280;51401;48.882;12.598;2023-09-30T09:44:21;64110.31;;;-137.53
64904;BMP280;51401;48.882;12.598;2023-09-30T09:46:47;64112.28;;;-137.53
64904;BMP280;51401;48.882;12.598;2023-09-30T09:49:18;64112.28;;;-137.53
64904;BMP280;51401;48.882;12.598;2023-09-30T09:51:47;64110.31;;;-137.53
64904;BMP280;51401;48.882;12.598;2023-09-30T09:54:14;64108.31;;;-137.53
64904;BMP280;51401;48.882;12.598;2023-09-30T09:56:41;64108.31;;;-137.53
64904;BMP280;51401;48.882;12.598;2023-09-30T09:59:07;64108.31;;;-137.53
64904;BMP280;51401;48.882;12.598;2023-09-30T10:01:35;64108.31;;;-137.53
64904;BMP280;51401;48.882;12.598;2023-09-30T10:04:01;64108.31;;;-137.53
64904;BMP280;51401;48.882;12.598;2023-09-30T10:06:27;64108.31;;;-137.53
64904;BMP280;51401;48.882;12.598;2023-09-30T10:08:54;64108.31;;;-137.53
64904;BMP280;51401;48.882;12.598;2023-09-30T10:11:21;64110.31;;;-137.53
64904;BMP280;51401;48.882;12.598;2023-09-30T10:13:55;64112.28;;;-137.53
64904;BMP280;51401;48.882;12.598;2023-09-30T10:19:20;64110.31;;;-137.53
64904;BMP280;51401;48.882;12.598;2023-09-30T10:24:45;64112.28;;;-137.53
64904;BMP280;51401;48.882;12.598;2023-09-30T10:37:44;64110.31;;;-137.53
64904;BMP280;51401;48.882;12.598;2023-09-30T10:40:26;64108.31;;;-137.53
64904;BMP280;51401;48.882;12.598;2023-09-30T10:42:51;64108.31;;;-137.53
64904;BMP280;51401;48.882;12.598;2023-09-30T10:51:16;64108.31;;;-137.53
64904;BMP280;51401;48.882;12.598;2023-09-30T10:53:52;64110.31;;;-137.53
64904;BMP280;51401;48.882;12.598;2023-09-30T10:56:20;64106.34;;;-137.53
64904;BMP280;51401;48.882;12.598;2023-09-30T11:01:14;64100.38;;;-137.53
64904;BMP280;51401;48.882;12.598;2023-09-30T11:03:41;64100.38;;;-137.53
64904;BMP280;51401;48.882;12.598;2023-09-30T11:06:06;64106.34;;;-137.53
64904;BMP280;51401;48.882;12.598;2023-09-30T11:08:33;64100.38;;;-137.53
64904;BMP280;51401;48.882;12.598;2023-09-30T11:10:59;64100.38;;;-137.53
64904;BMP280;51401;48.882;12.598;2023-09-30T11:13:31;64106.34;;;-137.53
64904;BMP280;51401;48.882;12.598;2023-09-30T11:16:04;64106.34;;;-137.53
64904;BMP280;51401;48.882;12.598;2023-09-30T11:18:30;64108.31;;;-137.53
64904;BMP280;51401;48.882;12.598;2023-09-30T11:21:08;64108.31;;;-137.53
64904;BMP280;51401;48.882;12.598;2023-09-30T11:23:35;64100.38;;;-137.53
64904;BMP280;51401;48.882;12.598;2023-09-30T11:26:00;64100.38;;;-137.53
64904;BMP280;51401;48.882;12.598;2023-09-30T11:28:35;64106.34;;;-137.53
64904;BMP280;51401;48.882;12.598;2023-09-30T11:31:01;64108.31;;;-137.53
64904;BMP280;51401;48.882;12.598;2023-09-30T11:33:27;64108.31;;;-137.53
64904;BMP280;51401;48.882;12.598;2023-09-30T11:36:11;64106.34;;;-137.53
64904;BMP280;51401;48.882;12.598;2023-09-30T11:38:36;64102.38;;;-137.53
64904;BMP280;51401;48.882;12.598;2023-09-30T11:41:03;64102.38;;;-137.53
64904;BMP280;51401;48.882;12.598;2023-09-30T11:43:35;64108.31;;;-137.53
64904;BMP280;51401;48.882;12.598;2023-09-30T11:46:07;64108.31;;;-137.53
64904;BMP280;51401;48.882;12.598;2023-09-30T11:48:34;64108.31;;;-137.53
64904;BMP280;51401;48.882;12.598;2023-09-30T11:51:00;64100.38;;;-137.53
64904;BMP280;51401;48.882;12.598;2023-09-30T11:53:28;64100.38;;;-137.53
64904;BMP280;51401;48.882;12.598;2023-09-30T11:55:55;64108.31;;;-137.53
64904;BMP280;51401;48.882;12.598;2023-09-30T11:58:21;64106.34;;;-137.53
64904;BMP280;51401;48.882;12.598;2023-09-30T12:00:47;64100.38;;;-137.53
64904;BMP280;51401;48.882;12.598;2023-09-30T12:03:16;64100.38;;;-137.53
64904;BMP280;51401;48.882;12.598;2023-09-30T12:05:41;64100.38;;;-137.53
64904;BMP280;51401;48.882;12.598;2023-09-30T12:08:06;64098.41;;;-137.53
64904;BMP280;51401;48.882;12.598;2023-09-30T12:10:32;64098.41;;;-137.53
64904;BMP280;51401;48.882;12.598;2023-09-30T12:12:57;64098.41;;;-137.53
64904;BMP280;51401;48.882;12.598;2023-09-30T12:15:22;64096.41;;;-137.53
64904;BMP280;51401;48.882;12.598;2023-09-30T12:17:48;64100.38;;;-137.53
64904;BMP280;51401;48.882;12.598;2023-09-30T12:20:13;64100.38;;;-137.53
64904;BMP280;51401;48.882;12.598;2023-09-30T12:22:43;64098.41;;;-137.53
64904;BMP280;51401;48.882;12.598;2023-09-30T12:25:08;64106.34;;;-137.53
64904;BMP280;51401;48.882;12.598;2023-09-30T12:27:34;64100.38;;;-137.53
64904;BMP280;51401;48.882;12.598;2023-09-30T12:29:59;64100.38;;;-137.53
64904;BMP280;51401;48.882;12.598;2023-09-30T12:32:29;64100.38;;;-137.53
64904;BMP280;51401;48.882;12.598;2023-09-30T12:34:55;64098.41;;;-137.53
64904;BMP280;51401;48.882;12.598;2023-09-30T12:37:20;64100.38;;;-137.53
64904;BMP280;51401;48.882;12.598;2023-09-30T12:39:45;64098.41;;;-137.53
64904;BMP280;51401;48.882;12.598;2023-09-30T12:42:10;64100.38;;;-137.53
64904;BMP280;51401;48.882;12.598;2023-09-30T12:44:38;64098.41;;;-137.53
64904;BMP280;51401;48.882;12.598;2023-09-30T12:47:04;64100.38;;;-137.53
64904;BMP280;51401;48.882;12.598;2023-09-30T12:49:30;64100.38;;;-137.53
64904;BMP280;51401;48.882;12.598;2023-09-30T12:51:56;64102.38;;;-137.53
64904;BMP280;51401;48.882;12.598;2023-09-30T12:54:22;64108.31;;;-137.53
64904;BMP280;51401;48.882;12.598;2023-09-30T12:56:48;64100.38;;;-137.53
64904;BMP280;51401;48.882;12.598;2023-09-30T12:59:16;64094.44;;;-137.53
64904;BMP280;51401;48.882;12.598;2023-09-30T13:01:43;64098.41;;;-137.53
64904;BMP280;51401;48.882;12.598;2023-09-30T13:04:08;64098.41;;;-137.53
64904;BMP280;51401;48.882;12.598;2023-09-30T13:06:34;64098.41;;;-137.53
64904;BMP280;51401;48.882;12.598;2023-09-30T13:09:00;64098.41;;;-137.53
64904;BMP280;51401;48.882;12.598;2023-09-30T13:11:26;64096.41;;;-137.53
64904;BMP280;51401;48.882;12.598;2023-09-30T13:13:51;64096.41;;;-137.53
64904;BMP280;51401;48.882;12.598;2023-09-30T13:16:17;64096.41;;;-137.53
64904;BMP280;51401;48.882;12.598;2023-09-30T13:18:42;64096.41;;;-137.53
64904;BMP280;51401;48.882;12.598;2023-09-30T13:21:07;64094.44;;;-137.53
64904;BMP280;51401;48.882;12.598;2023-09-30T13:23:33;64092.44;;;-137.53
64904;BMP280;51401;48.882;12.598;2023-09-30T13:25:59;64092.44;;;-137.53
64904;BMP280;51401;48.882;12.598;2023-09-30T13:28:24;64092.44;;;-137.53
64904;BMP280;51401;48.882;12.598;2023-09-30T13:30:49;64092.44;;;-137.53
64904;BMP280;51401;48.882;12.598;2023-09-30T13:33:15;64092.44;;;-137.53
64904;BMP280;51401;48.882;12.598;2023-09-30T13:35:40;64092.44;;;-137.53
64904;BMP280;51401;48.882;12.598;2023-09-30T13:38:05;64096.41;;;-137.53
64904;BMP280;51401;48.882;12.598;2023-09-30T13:40:31;64090.44;;;-137.53
64904;BMP280;51401;48.882;12.598;2023-09-30T13:42:56;64088.47;;;-137.53
64904;BMP280;51401;48.882;12.598;2023-09-30T13:45:25;64092.44;;;-137.53
64904;BMP280;51401;48.882;12.598;2023-09-30T13:47:50;64096.41;;;-137.53
64904;BMP280;51401;48.882;12.598;2023-09-30T13:50:16;64096.41;;;-137.53
64904;BMP280;51401;48.882;12.598;2023-09-30T13:52:41;64098.41;;;-137.53
64904;BMP280;51401;48.882;12.598;2023-09-30T13:55:06;64094.44;;;-137.53